Time;durP1;ratioP1;P1;durP2;ratioP2;P2;SDS_P1;SDS_P2;PMS_P1;PMS_P2;Temp;Humidity;BMP_temperature;BMP_pressure;BME280_temperature;BME280_humidity;BME280_pressure;Samples;Min_cycle;Max_cycle;Signal;HPM_P1;HPM_P2
2022/01/06 00:01:45;;;;;;;3.50;0.60;;;;;;;2.85;77.63;99015.41;105990;1271;22600;-68
2022/01/06 00:04:16;;;;;;;6.80;1.00;;;;;;;2.83;77.56;99020.20;105609;1271;22530;-69
2022/01/06 00:06:47;;;;;;;6.80;1.10;;;;;;;2.81;77.80;99025.27;105629;1271;23312;-67
2022/01/06 00:09:19;;;;;;;5.70;1.10;;;;;;;2.80;78.03;99025.54;105621;1271;25318;-68
2022/01/06 00:11:50;;;;;;;5.50;1.20;;;;;;;2.80;78.04;99031.60;105747;1271;22539;-67
2022/01/06 00:14:37;;;;;;;5.80;0.90;;;;;;;2.79;78.36;99036.36;105696;1272;24295;-69
2022/01/06 00:17:22;;;;;;;7.30;1.10;;;;;;;2.77;78.61;99039.04;105554;1271;22567;-68
2022/01/06 00:25:31;;;;;;;6.00;0.90;;;;;;;2.73;79.13;99032.04;105715;1271;22532;-69
2022/01/06 00:28:02;;;;;;;8.60;1.40;;;;;;;2.72;79.28;99029.63;105626;1271;22560;-69
2022/01/06 00:30:36;;;;;;;5.30;0.80;;;;;;;2.72;79.44;99041.89;105658;1271;25248;-68
2022/01/06 00:33:07;;;;;;;5.00;1.00;;;;;;;2.72;79.74;99043.70;105641;1271;25258;-66
2022/01/06 00:35:39;;;;;;;9.30;1.10;;;;;;;2.72;79.87;99039.64;105263;1271;495141;-69
2022/01/06 00:38:18;;;;;;;5.20;0.90;;;;;;;2.73;79.97;99037.64;105708;1271;25425;-69
2022/01/06 00:40:59;;;;;;;8.10;1.20;;;;;;;2.72;80.00;99044.83;105644;1271;25357;-70
2022/01/06 00:43:48;;;;;;;6.90;1.10;;;;;;;2.71;80.00;99054.89;105705;1271;24310;-69
2022/01/06 00:46:23;;;;;;;9.70;1.20;;;;;;;2.72;80.11;99061.06;105723;1271;23260;-69
2022/01/06 00:49:00;;;;;;;6.40;1.30;;;;;;;2.74;80.21;99064.14;105594;1271;27656;-68
2022/01/06 00:54:20;;;;;;;9.20;1.60;;;;;;;2.77;80.10;99064.79;105632;1271;24356;-68
2022/01/06 00:56:54;;;;;;;10.30;1.90;;;;;;;2.79;80.11;99068.02;105687;1271;24234;-69
2022/01/06 00:59:29;;;;;;;8.70;1.50;;;;;;;2.79;80.15;99068.58;105639;1273;24201;-70
2022/01/06 01:02:04;;;;;;;8.50;1.40;;;;;;;2.80;80.12;99072.63;106139;1271;27603;-66
2022/01/06 01:04:35;;;;;;;7.00;1.00;;;;;;;2.79;80.16;99077.16;105747;1271;25326;-69
2022/01/06 01:07:06;;;;;;;8.40;1.50;;;;;;;2.79;80.13;99079.28;106138;1272;25331;-68
2022/01/06 01:09:38;;;;;;;9.50;1.50;;;;;;;2.79;80.21;99081.88;105645;1272;22997;-68
2022/01/06 01:12:11;;;;;;;10.90;1.30;;;;;;;2.80;80.13;99084.42;105554;1271;25351;-68
2022/01/06 01:14:53;;;;;;;7.10;1.10;;;;;;;2.82;80.13;99087.13;105677;1271;22625;-69
2022/01/06 01:17:25;;;;;;;7.50;1.10;;;;;;;2.83;80.24;99089.27;105590;1271;22534;-68
2022/01/06 01:19:56;;;;;;;9.80;1.40;;;;;;;2.85;80.25;99090.69;105609;1271;22574;-70
2022/01/06 01:22:27;;;;;;;6.40;1.00;;;;;;;2.86;80.27;99093.54;105560;1271;25357;-68
2022/01/06 01:24:58;;;;;;;6.50;1.20;;;;;;;2.87;80.34;99093.91;105662;1271;24429;-69
2022/01/06 01:27:35;;;;;;;4.90;0.80;;;;;;;2.87;80.47;99092.23;105553;1272;22567;-69
2022/01/06 01:30:11;;;;;;;3.90;0.70;;;;;;;2.89;80.62;99096.67;105586;1271;24308;-70
2022/01/06 01:32:46;;;;;;;6.00;0.80;;;;;;;2.93;80.80;99097.90;105659;1271;22554;-68
2022/01/06 01:35:18;;;;;;;1.60;0.30;;;;;;;2.98;80.80;99103.41;105737;1271;24393;-67
2022/01/06 01:37:49;;;;;;;5.70;0.60;;;;;;;3.02;80.76;99104.23;105778;1271;22564;-68
2022/01/06 01:40:20;;;;;;;2.70;0.50;;;;;;;3.05;80.77;99104.54;105591;1272;22574;-67
2022/01/06 01:42:51;;;;;;;5.30;0.90;;;;;;;3.07;80.74;99108.46;105819;1271;22665;-68
2022/01/06 01:45:28;;;;;;;3.90;0.70;;;;;;;3.09;80.79;99107.52;105545;1271;22554;-67
2022/01/06 01:48:04;;;;;;;2.60;0.40;;;;;;;3.11;80.86;99106.09;105698;1271;24273;-68
2022/01/06 01:50:35;;;;;;;5.30;0.80;;;;;;;3.13;80.82;99103.57;105833;1272;22535;-69
2022/01/06 01:53:06;;;;;;;3.50;0.70;;;;;;;3.15;80.76;99101.20;105786;1272;22556;-71
2022/01/06 01:55:37;;;;;;;6.00;0.70;;;;;;;3.17;80.72;99101.59;105663;1272;22638;-69
2022/01/06 01:58:09;;;;;;;6.30;0.80;;;;;;;3.19;80.69;99103.95;105743;1271;22663;-68
2022/01/06 02:00:40;;;;;;;5.30;0.60;;;;;;;3.20;80.64;99105.34;105848;1272;22534;-70
2022/01/06 02:03:10;;;;;;;8.40;0.40;;;;;;;3.21;80.61;99109.14;105806;1271;22553;-67
2022/01/06 02:05:41;;;;;;;2.80;0.70;;;;;;;3.21;80.63;99112.75;105801;1271;22558;-67
2022/01/06 02:08:12;;;;;;;5.90;0.50;;;;;;;3.21;80.61;99113.93;105806;1273;25490;-69
2022/01/06 02:10:43;;;;;;;3.50;0.50;;;;;;;3.22;80.62;99116.29;106481;1271;24219;-67
2022/01/06 02:13:15;;;;;;;4.20;0.40;;;;;;;3.22;80.57;99110.21;106192;1271;25261;-65
2022/01/06 02:15:46;;;;;;;5.00;0.50;;;;;;;3.21;80.61;99113.86;105658;1272;22560;-68
2022/01/06 02:18:18;;;;;;;5.00;0.90;;;;;;;3.21;80.64;99113.80;105651;1271;22657;-68
2022/01/06 02:20:49;;;;;;;2.60;0.40;;;;;;;3.21;80.65;99113.65;105774;1273;26549;-68
2022/01/06 02:23:21;;;;;;;6.30;0.50;;;;;;;3.20;80.59;99113.61;105695;1271;25889;-66
2022/01/06 02:25:52;;;;;;;5.80;0.60;;;;;;;3.20;80.67;99116.06;105663;1271;26509;-68
2022/01/06 02:28:23;;;;;;;7.00;0.70;;;;;;;3.19;80.69;99118.81;105723;1271;22537;-65
2022/01/06 02:30:57;;;;;;;5.20;0.70;;;;;;;3.19;80.77;99126.77;105881;1271;22560;-70
2022/01/06 02:33:28;;;;;;;2.90;0.50;;;;;;;3.20;80.83;99131.27;105624;1273;22554;-68
2022/01/06 02:36:00;;;;;;;3.30;0.80;;;;;;;3.18;81.18;99127.38;105732;1272;24306;-67
2022/01/06 02:38:31;;;;;;;6.10;0.60;;;;;;;3.16;81.53;99131.16;105654;1271;22539;-71
2022/01/06 02:41:02;;;;;;;4.30;0.70;;;;;;;3.12;81.79;99132.27;105536;1273;24360;-69
2022/01/06 02:43:34;;;;;;;5.30;0.80;;;;;;;3.06;81.96;99134.02;105556;1271;22989;-70
2022/01/06 02:46:05;;;;;;;5.60;0.50;;;;;;;3.02;82.17;99137.34;105589;1271;24408;-69
2022/01/06 02:48:36;;;;;;;8.10;1.00;;;;;;;2.98;82.37;99138.82;105616;1271;24259;-69
2022/01/06 02:51:07;;;;;;;7.50;1.10;;;;;;;2.95;82.30;99144.45;105631;1272;22534;-68
2022/01/06 02:53:38;;;;;;;4.50;0.90;;;;;;;2.94;82.42;99142.78;105611;1273;24253;-72
2022/01/06 02:56:09;;;;;;;9.30;1.40;;;;;;;2.93;82.63;99145.88;105570;1272;24306;-66
2022/01/06 02:58:43;;;;;;;5.60;0.50;;;;;;;2.91;82.61;99148.33;105771;1273;22554;-75
2022/01/06 03:01:14;;;;;;;8.00;0.70;;;;;;;2.90;82.54;99149.23;105480;1272;22550;-68
2022/01/06 03:03:44;;;;;;;2.80;0.50;;;;;;;2.89;82.39;99155.33;105615;1271;24406;-69
2022/01/06 03:06:15;;;;;;;4.90;0.50;;;;;;;2.88;82.35;99155.55;105631;1272;23194;-68
2022/01/06 03:08:46;;;;;;;3.10;0.50;;;;;;;2.87;82.47;99163.38;105612;1271;25253;-68
2022/01/06 03:11:25;;;;;;;3.40;0.30;;;;;;;2.85;82.46;99166.20;105521;1271;23191;-67
2022/01/06 03:13:56;;;;;;;7.80;0.30;;;;;;;2.81;82.16;99168.58;105598;1271;22535;-71
2022/01/06 03:16:27;;;;;;;3.30;0.40;;;;;;;2.77;82.35;99172.02;105574;1273;22534;-68
2022/01/06 03:19:00;;;;;;;2.60;0.40;;;;;;;2.73;82.31;99173.68;105683;1271;24379;-68
2022/01/06 03:21:33;;;;;;;6.20;0.40;;;;;;;2.69;82.33;99169.90;105600;1272;22559;-69
2022/01/06 03:24:06;;;;;;;5.00;0.60;;;;;;;2.66;82.35;99171.52;105617;1273;26566;-68
2022/01/06 03:26:37;;;;;;;4.90;0.40;;;;;;;2.65;82.60;99175.83;105786;1273;22564;-68
2022/01/06 03:29:08;;;;;;;7.00;0.50;;;;;;;2.62;82.74;99174.98;105512;1271;24232;-69
2022/01/06 03:31:40;;;;;;;3.70;0.30;;;;;;;2.60;82.82;99175.04;105582;1271;26163;-68
2022/01/06 03:34:12;;;;;;;4.20;0.30;;;;;;;2.59;82.85;99173.84;105578;1271;22722;-67
2022/01/06 03:36:46;;;;;;;4.40;0.40;;;;;;;2.59;83.00;99184.36;105821;1273;24263;-71
2022/01/06 03:39:25;;;;;;;5.90;0.50;;;;;;;2.58;83.43;99186.30;105513;1273;22538;-75
2022/01/06 03:41:56;;;;;;;3.90;0.40;;;;;;;2.57;83.60;99186.23;106191;1272;24201;-74
2022/01/06 03:44:27;;;;;;;2.30;0.30;;;;;;;2.54;83.84;99183.92;106095;1273;22559;-70
2022/01/06 03:46:59;;;;;;;5.80;0.40;;;;;;;2.49;83.96;99180.17;105550;1272;24421;-69
2022/01/06 03:49:33;;;;;;;3.60;0.40;;;;;;;2.46;84.08;99179.32;105570;1271;23310;-69
2022/01/06 03:52:05;;;;;;;5.90;0.50;;;;;;;2.46;84.20;99184.06;105585;1271;23965;-69
2022/01/06 03:54:40;;;;;;;3.30;0.70;;;;;;;2.45;84.32;99188.44;105640;1271;22535;-69
2022/01/06 03:57:16;;;;;;;5.40;0.60;;;;;;;2.44;84.58;99187.91;105589;1273;25344;-69
2022/01/06 03:59:52;;;;;;;5.70;0.40;;;;;;;2.44;84.50;99185.31;105709;1271;25317;-70
2022/01/06 04:02:23;;;;;;;4.00;0.50;;;;;;;2.46;84.55;99188.77;105556;1272;26499;-68
2022/01/06 04:04:54;;;;;;;3.90;0.50;;;;;;;2.46;84.62;99193.23;105662;1273;25308;-71
2022/01/06 04:07:24;;;;;;;3.00;0.40;;;;;;;2.48;84.76;99190.79;105524;1273;22637;-69
2022/01/06 04:09:56;;;;;;;7.20;0.70;;;;;;;2.47;84.81;99190.41;105563;1273;25426;-70
2022/01/06 04:12:26;;;;;;;3.30;0.50;;;;;;;2.46;84.84;99190.98;105540;1272;22640;-69
2022/01/06 04:15:01;;;;;;;4.60;0.50;;;;;;;2.47;84.79;99189.70;105574;1273;25361;-69
2022/01/06 04:17:32;;;;;;;7.30;0.70;;;;;;;2.47;84.87;99202.14;105653;1271;22554;-71
2022/01/06 04:20:16;;;;;;;6.00;0.70;;;;;;;2.47;84.99;99200.48;106062;1271;22547;-71
2022/01/06 04:22:59;;;;;;;5.80;0.40;;;;;;;2.46;85.04;99205.00;106875;1271;22490;-75
2022/01/06 04:25:47;;;;;;;7.10;0.60;;;;;;;2.40;84.97;99214.42;106846;1262;22568;-68
2022/01/06 04:28:28;;;;;;;3.90;0.60;;;;;;;2.34;84.98;99214.02;106197;1271;22641;-66
2022/01/06 04:31:03;;;;;;;8.10;0.70;;;;;;;2.29;85.03;99212.14;106246;1273;23084;-64
2022/01/06 04:33:43;;;;;;;3.00;0.60;;;;;;;2.25;85.09;99216.85;106067;1271;22538;-64
2022/01/06 04:36:21;;;;;;;6.40;0.70;;;;;;;2.24;85.34;99215.55;106139;1273;25341;-64
2022/01/06 04:38:59;;;;;;;4.40;0.50;;;;;;;2.24;85.52;99215.87;106139;1272;25298;-63
2022/01/06 04:41:34;;;;;;;5.00;0.50;;;;;;;2.25;85.85;99216.09;106241;1272;25254;-63
2022/01/06 04:44:06;;;;;;;5.00;0.70;;;;;;;2.24;85.99;99220.66;106175;1271;22603;-63
2022/01/06 04:46:37;;;;;;;10.20;0.90;;;;;;;2.24;85.99;99223.48;106287;1273;22667;-65
2022/01/06 04:49:08;;;;;;;7.60;0.90;;;;;;;2.25;86.06;99220.16;106253;1271;22613;-63
2022/01/06 04:51:39;;;;;;;4.90;0.90;;;;;;;2.27;86.13;99221.52;106144;1272;22554;-64
2022/01/06 04:54:13;;;;;;;3.60;0.70;;;;;;;2.27;86.27;99231.42;106281;1271;23122;-64
2022/01/06 04:56:42;;;;;;;;;;;;;;;2.27;86.26;99230.30;106150;1272;23853;-63
2022/01/06 04:59:13;;;;;;;5.30;0.90;;;;;;;2.29;86.29;99225.54;106140;1273;26515;-63
2022/01/06 05:01:52;;;;;;;5.10;0.90;;;;;;;2.30;86.27;99230.54;106157;1271;22563;-63
2022/01/06 05:04:24;;;;;;;6.50;0.90;;;;;;;2.31;86.35;99236.48;106500;1273;22862;-64
2022/01/06 05:06:57;;;;;;;9.30;0.90;;;;;;;2.30;86.39;99238.77;106242;1272;22540;-63
2022/01/06 05:09:28;;;;;;;7.50;1.10;;;;;;;2.31;86.37;99233.64;106498;1273;24126;-64
2022/01/06 05:11:58;;;;;;;8.30;1.20;;;;;;;2.32;86.41;99239.66;106098;1271;22809;-63
2022/01/06 05:14:29;;;;;;;4.00;0.80;;;;;;;2.33;86.50;99244.35;106147;1272;22557;-64
2022/01/06 05:17:00;;;;;;;5.80;0.70;;;;;;;2.33;86.56;99246.48;106264;1271;22554;-63
2022/01/06 05:19:31;;;;;;;6.80;0.70;;;;;;;2.33;86.67;99251.52;106186;1272;22572;-64
2022/01/06 05:22:02;;;;;;;8.80;0.70;;;;;;;2.33;86.64;99252.77;106174;1271;22693;-64
2022/01/06 05:24:35;;;;;;;9.20;1.00;;;;;;;2.33;86.58;99261.09;106246;1271;23792;-64
2022/01/06 05:27:10;;;;;;;9.70;0.70;;;;;;;2.32;86.51;99264.46;106121;1273;22576;-63
2022/01/06 05:29:41;;;;;;;4.00;0.90;;;;;;;2.30;86.36;99269.70;106181;1272;22485;-64
2022/01/06 05:32:12;;;;;;;5.90;1.00;;;;;;;2.29;86.30;99270.14;106093;1271;22537;-63
2022/01/06 05:34:43;;;;;;;7.20;1.00;;;;;;;2.27;86.24;99270.93;106177;1271;22524;-63
2022/01/06 05:37:19;;;;;;;4.60;0.80;;;;;;;2.25;86.09;99273.98;106155;1273;23733;-63
2022/01/06 05:39:56;;;;;;;6.10;1.00;;;;;;;2.22;86.00;99278.64;106115;1273;22577;-63
2022/01/06 05:42:30;;;;;;;8.40;0.70;;;;;;;2.20;86.02;99275.80;106154;1273;24966;-63
2022/01/06 05:45:00;;;;;;;10.60;1.00;;;;;;;2.19;86.02;99280.25;106204;1273;26045;-63
2022/01/06 05:47:32;;;;;;;9.40;1.00;;;;;;;2.17;86.11;99288.55;106173;1271;25383;-63
2022/01/06 05:50:17;;;;;;;7.90;0.90;;;;;;;2.16;86.11;99294.27;106286;1271;22573;-63
2022/01/06 05:52:48;;;;;;;5.70;1.20;;;;;;;2.14;86.18;99288.04;106233;1271;22542;-64
2022/01/06 05:55:19;;;;;;;4.30;0.90;;;;;;;2.12;86.09;99294.71;106321;1271;25245;-64
2022/01/06 05:57:54;;;;;;;3.90;0.70;;;;;;;2.09;85.99;99299.05;106191;1273;24242;-64
2022/01/06 06:00:27;;;;;;;6.90;1.00;;;;;;;2.05;85.95;99301.81;106113;1271;22532;-63
2022/01/06 06:02:58;;;;;;;6.20;0.90;;;;;;;2.01;85.98;99297.77;106136;1271;23959;-64
2022/01/06 06:05:30;;;;;;;4.80;0.80;;;;;;;1.98;85.75;99300.78;106248;1273;22550;-64
2022/01/06 06:08:04;;;;;;;4.70;0.70;;;;;;;1.94;85.73;99306.16;106204;1271;22545;-61
2022/01/06 06:10:36;;;;;;;2.80;0.70;;;;;;;1.91;85.69;99314.39;106293;1272;22539;-64
2022/01/06 06:13:09;;;;;;;8.40;1.00;;;;;;;1.88;85.74;99318.98;107460;1271;25320;-63
2022/01/06 06:15:45;;;;;;;5.80;0.70;;;;;;;1.85;85.96;99316.38;106925;1271;22608;-69
2022/01/06 06:18:19;;;;;;;4.90;0.50;;;;;;;1.85;86.02;99320.80;106152;1273;22588;-64
2022/01/06 06:20:53;;;;;;;5.60;1.00;;;;;;;1.84;86.11;99325.40;106135;1271;24545;-64
2022/01/06 06:23:27;;;;;;;6.20;1.50;;;;;;;1.86;86.11;99331.92;106320;1271;24288;-63
2022/01/06 06:26:02;;;;;;;7.10;1.10;;;;;;;1.87;86.44;99336.13;106176;1271;25525;-63
2022/01/06 06:28:39;;;;;;;7.70;1.20;;;;;;;1.88;86.51;99343.75;106241;1273;22773;-63
2022/01/06 06:31:14;;;;;;;6.40;1.00;;;;;;;1.87;86.39;99356.17;106261;1271;25266;-64
2022/01/06 06:33:45;;;;;;;6.20;0.80;;;;;;;1.86;86.28;99366.53;106166;1271;24341;-63
2022/01/06 06:36:17;;;;;;;4.70;1.10;;;;;;;1.83;85.99;99377.54;106217;1271;24906;-64
2022/01/06 06:38:48;;;;;;;7.10;0.90;;;;;;;1.79;85.52;99377.43;106194;1272;22547;-64
2022/01/06 06:41:20;;;;;;;3.50;0.60;;;;;;;1.75;85.33;99375.20;106172;1271;25266;-64
2022/01/06 06:43:52;;;;;;;3.70;0.60;;;;;;;1.71;85.33;99382.09;106247;1271;22531;-64
2022/01/06 06:46:26;;;;;;;2.70;0.60;;;;;;;1.67;85.25;99391.73;106130;1273;22540;-64
2022/01/06 06:49:09;;;;;;;5.60;0.80;;;;;;;1.64;85.31;99399.82;106148;1271;22536;-64
2022/01/06 06:51:47;;;;;;;4.10;0.60;;;;;;;1.60;85.25;99409.98;106178;1272;25611;-64
2022/01/06 06:54:22;;;;;;;5.10;0.60;;;;;;;1.57;85.27;99414.96;106268;1271;25534;-64
2022/01/06 06:56:59;;;;;;;2.80;0.50;;;;;;;1.55;85.31;99418.72;106093;1271;25468;-64
2022/01/06 06:59:36;;;;;;;3.20;0.50;;;;;;;1.51;85.41;99426.46;106090;1273;24229;-64
2022/01/06 07:02:14;;;;;;;3.40;0.40;;;;;;;1.50;85.56;99430.91;106054;1273;22569;-64
2022/01/06 07:04:46;;;;;;;3.60;0.80;;;;;;;1.48;85.67;99437.56;106040;1271;22557;-63
2022/01/06 07:07:17;;;;;;;2.20;0.40;;;;;;;1.48;85.66;99448.73;106051;1272;24229;-63
2022/01/06 07:09:50;;;;;;;5.90;0.60;;;;;;;1.45;85.64;99452.02;106125;1273;22720;-64
2022/01/06 07:12:30;;;;;;;2.90;0.60;;;;;;;1.41;85.35;99449.30;106066;1271;24802;-64
2022/01/06 07:15:02;;;;;;;7.40;0.80;;;;;;;1.38;85.48;99451.44;106012;1272;24226;-64
2022/01/06 07:17:34;;;;;;;3.10;0.60;;;;;;;1.33;85.49;99455.98;106050;1272;25334;-64
2022/01/06 07:20:10;;;;;;;4.40;0.50;;;;;;;1.29;85.70;99459.23;106037;1273;25419;-64
2022/01/06 07:22:41;;;;;;;3.10;0.60;;;;;;;1.26;85.85;99462.77;106043;1272;25317;-64
2022/01/06 07:25:15;;;;;;;3.60;0.80;;;;;;;1.27;85.94;99461.83;105683;1273;24336;-64
2022/01/06 07:27:45;;;;;;;4.70;0.40;;;;;;;1.26;86.01;99465.45;105681;1273;25606;-64
2022/01/06 07:30:17;;;;;;;2.70;0.80;;;;;;;1.25;86.04;99478.98;105855;1273;22577;-64
2022/01/06 07:32:49;;;;;;;4.90;0.70;;;;;;;1.26;86.25;99485.18;106066;1271;24505;-64
2022/01/06 07:35:22;;;;;;;13.50;1.20;;;;;;;1.25;86.11;99491.33;105952;1271;24321;-64
2022/01/06 07:37:55;;;;;;;7.20;1.10;;;;;;;1.24;86.03;99498.91;105827;1271;25266;-64
2022/01/06 07:40:26;;;;;;;5.70;1.00;;;;;;;1.24;85.79;99500.22;106288;1272;22770;-64
2022/01/06 07:42:57;;;;;;;7.50;0.80;;;;;;;1.24;85.71;99504.61;106227;1271;22638;-64
2022/01/06 07:45:28;;;;;;;6.00;0.70;;;;;;;1.25;85.76;99509.30;105956;1272;23275;-64
2022/01/06 07:48:01;;;;;;;4.30;1.00;;;;;;;1.26;85.55;99512.89;105934;1272;22544;-63
2022/01/06 07:50:35;;;;;;;7.70;0.90;;;;;;;1.26;85.23;99519.10;106081;1271;25267;-63
2022/01/06 07:53:05;;;;;;;4.30;0.60;;;;;;;1.25;85.11;99518.74;106187;1271;24273;-63
2022/01/06 07:55:36;;;;;;;3.30;0.60;;;;;;;1.22;85.00;99518.81;106192;1271;25419;-62
2022/01/06 07:58:09;;;;;;;5.70;0.60;;;;;;;1.19;85.09;99520.71;106159;1272;23201;-64
2022/01/06 08:00:40;;;;;;;5.80;0.40;;;;;;;1.15;85.06;99537.06;106365;1271;22561;-65
2022/01/06 08:03:11;;;;;;;7.30;0.70;;;;;;;1.11;85.08;99543.85;106033;1271;23154;-64
2022/01/06 08:05:42;;;;;;;5.80;0.60;;;;;;;1.06;84.85;99545.94;105845;1271;22537;-63
2022/01/06 08:08:13;;;;;;;3.00;0.60;;;;;;;1.03;84.18;99552.23;106167;1271;24342;-63
2022/01/06 08:10:44;;;;;;;1.50;0.30;;;;;;;0.98;83.92;99569.16;106430;1271;23990;-63
2022/01/06 08:13:15;;;;;;;3.80;0.40;;;;;;;0.95;83.77;99564.70;106416;1271;25613;-64
2022/01/06 08:15:47;;;;;;;2.50;0.40;;;;;;;0.91;83.62;99573.82;106050;1271;23039;-64
2022/01/06 08:18:20;;;;;;;3.40;0.50;;;;;;;0.88;84.06;99574.98;106045;1271;23284;-64
2022/01/06 08:20:50;;;;;;;4.20;0.60;;;;;;;0.86;84.20;99594.02;105971;1271;24230;-64
2022/01/06 08:23:22;;;;;;;4.70;0.50;;;;;;;0.83;84.76;99597.45;106027;1271;24855;-64
2022/01/06 08:25:53;;;;;;;6.60;0.60;;;;;;;0.82;85.24;99602.83;106000;1271;22601;-64
2022/01/06 08:28:26;;;;;;;5.10;0.60;;;;;;;0.77;85.56;99612.55;106106;1271;26688;-64
2022/01/06 08:30:57;;;;;;;4.70;0.60;;;;;;;0.70;85.64;99613.63;106139;1271;22897;-65
2022/01/06 08:33:29;;;;;;;5.40;0.50;;;;;;;0.66;85.57;99615.04;105998;1271;26120;-63
2022/01/06 08:36:00;;;;;;;4.70;0.60;;;;;;;0.66;85.66;99622.36;106258;1271;22607;-64
2022/01/06 08:38:31;;;;;;;4.00;0.70;;;;;;;0.67;85.43;99624.14;106113;1271;26495;-66
2022/01/06 08:41:07;;;;;;;3.80;0.80;;;;;;;0.68;85.50;99625.67;106170;1271;24311;-64
2022/01/06 08:43:39;;;;;;;4.70;0.60;;;;;;;0.71;85.29;99635.27;106169;1272;25626;-64
2022/01/06 08:46:11;;;;;;;8.40;1.10;;;;;;;0.74;85.08;99646.04;106446;1271;22579;-63
2022/01/06 08:51:29;;;;;;;6.70;0.80;;;;;;;0.81;84.43;99657.58;106261;1271;22534;-64
2022/01/06 08:54:04;;;;;;;5.10;0.60;;;;;;;0.84;84.19;99672.27;106723;1271;25420;-65
2022/01/06 08:56:35;;;;;;;2.60;0.40;;;;;;;0.83;83.28;99678.34;106865;1271;22548;-64
2022/01/06 08:59:09;;;;;;;3.20;0.50;;;;;;;0.77;82.40;99678.55;105998;1271;25426;-65
2022/01/06 09:01:40;;;;;;;5.00;0.40;;;;;;;0.70;81.47;99687.80;106053;1271;22551;-64
2022/01/06 09:04:20;;;;;;;2.90;0.40;;;;;;;0.64;81.08;99694.06;105999;1271;25235;-64
2022/01/06 09:06:55;;;;;;;3.30;0.50;;;;;;;0.60;80.35;99695.63;105624;1271;25325;-63
2022/01/06 09:09:59;;;;;;;1.80;0.30;;;;;;;0.56;80.12;99699.71;105635;1271;25742;-63
2022/01/06 09:12:45;;;;;;;2.30;0.40;;;;;;;0.56;80.09;99705.46;105482;1271;22563;-64
2022/01/06 09:15:26;;;;;;;3.40;0.40;;;;;;;0.55;79.15;99713.55;105593;1271;22547;-66
2022/01/06 09:18:08;;;;;;;1.50;0.40;;;;;;;0.53;78.44;99727.25;106033;1271;25694;-64
2022/01/06 09:20:47;;;;;;;3.60;0.40;;;;;;;0.53;78.50;99731.39;106211;1271;22630;-62
2022/01/06 09:23:20;;;;;;;4.60;0.50;;;;;;;0.57;79.42;99735.40;105656;1271;22580;-63
2022/01/06 09:25:52;;;;;;;3.80;0.40;;;;;;;0.60;78.01;99741.70;105481;1271;22636;-63
2022/01/06 09:28:23;;;;;;;2.70;0.30;;;;;;;0.58;76.94;99743.23;105477;1271;22573;-63
2022/01/06 09:30:55;;;;;;;1.10;0.30;;;;;;;0.54;73.53;99755.40;105493;1271;25330;-62
2022/01/06 09:33:28;;;;;;;2.10;0.20;;;;;;;0.47;72.75;99765.80;105392;1271;25508;-63
2022/01/06 09:35:59;;;;;;;0.70;0.20;;;;;;;0.42;72.43;99759.41;105771;1271;23012;-63
2022/01/06 09:38:30;;;;;;;4.20;0.20;;;;;;;0.37;72.80;99758.17;105675;1271;25342;-63
2022/01/06 09:41:05;;;;;;;2.40;0.30;;;;;;;0.35;74.34;99755.08;105822;1271;22770;-62
2022/01/06 09:43:37;;;;;;;4.00;1.00;;;;;;;0.34;74.34;99758.30;105285;1272;22600;-62
2022/01/06 09:46:09;;;;;;;4.50;0.30;;;;;;;0.36;74.70;99766.82;106487;1271;24238;-62
2022/01/06 09:48:42;;;;;;;4.90;0.20;;;;;;;0.39;74.36;99779.39;106257;1271;24402;-62
2022/01/06 09:51:13;;;;;;;3.10;0.30;;;;;;;0.39;73.77;99791.71;106072;1271;25380;-63
2022/01/06 09:53:44;;;;;;;1.30;0.20;;;;;;;0.35;73.34;99795.48;106588;1271;22691;-61
2022/01/06 09:56:15;;;;;;;4.00;0.60;;;;;;;0.29;73.62;99790.25;105593;1271;22555;-62
2022/01/06 09:58:46;;;;;;;4.70;0.60;;;;;;;0.24;71.69;99811.69;105742;1271;22716;-62
2022/01/06 10:01:17;;;;;;;1.90;0.20;;;;;;;0.14;71.21;99823.23;105907;1271;25327;-63
2022/01/06 10:03:49;;;;;;;3.20;1.00;;;;;;;0.09;72.79;99825.20;105560;1271;22534;-62
2022/01/06 10:06:22;;;;;;;2.90;0.30;;;;;;;0.06;73.36;99829.88;105607;1271;25614;-62
2022/01/06 10:09:04;;;;;;;4.30;0.30;;;;;;;0.05;73.01;99843.30;105909;1271;24304;-62
2022/01/06 10:11:45;;;;;;;1.80;0.80;;;;;;;0.03;73.74;99840.05;105934;1273;24813;-63
2022/01/06 10:14:21;;;;;;;1.90;0.30;;;;;;;0.01;73.22;99851.70;106089;1273;22620;-62
2022/01/06 10:16:52;;;;;;;3.20;0.40;;;;;;;-0.02;72.93;99855.73;105940;1271;25641;-62
2022/01/06 10:19:24;;;;;;;3.80;0.40;;;;;;;-0.06;71.79;99856.50;106042;1271;22543;-62
2022/01/06 10:21:58;;;;;;;4.30;0.40;;;;;;;-0.09;72.57;99855.67;105991;1271;23050;-62
2022/01/06 10:24:30;;;;;;;1.90;0.30;;;;;;;-0.13;72.91;99861.39;106100;1271;22562;-63
2022/01/06 10:27:04;;;;;;;2.10;0.30;;;;;;;-0.16;72.41;99859.17;106061;1271;22609;-62
2022/01/06 10:29:36;;;;;;;3.20;0.20;;;;;;;-0.16;72.35;99870.05;106158;1271;22566;-62
2022/01/06 10:32:10;;;;;;;3.40;0.10;;;;;;;-0.13;73.06;99866.72;106102;1271;22644;-62
2022/01/06 10:34:44;;;;;;;2.90;0.50;;;;;;;-0.10;74.01;99866.52;106181;1271;22709;-64
2022/01/06 10:37:24;;;;;;;5.90;0.40;;;;;;;-0.05;73.90;99876.63;106241;1271;22554;-62
2022/01/06 10:39:58;;;;;;;3.90;0.40;;;;;;;-0.04;73.01;99887.98;106119;1271;24715;-62
2022/01/06 10:42:32;;;;;;;1.90;0.20;;;;;;;-0.07;73.29;99892.95;105951;1271;24277;-62
2022/01/06 10:45:09;;;;;;;6.30;0.40;;;;;;;-0.09;73.39;99886.41;106055;1271;25608;-62
2022/01/06 10:47:42;;;;;;;4.90;0.50;;;;;;;-0.08;71.91;99899.34;105974;1271;22538;-63
2022/01/06 10:50:19;;;;;;;4.30;0.70;;;;;;;-0.08;72.84;99890.86;105956;1271;22553;-62
2022/01/06 10:52:52;;;;;;;4.50;1.80;;;;;;;-0.05;72.81;99883.21;106163;1271;25266;-62
2022/01/06 10:55:27;;;;;;;3.50;0.20;;;;;;;-0.03;72.26;99879.27;106085;1271;25393;-62
2022/01/06 10:58:00;;;;;;;4.10;0.50;;;;;;;0.01;72.52;99882.27;106145;1271;26552;-62
2022/01/06 11:00:34;;;;;;;5.00;0.60;;;;;;;0.10;73.05;99885.66;105827;1271;25338;-63
2022/01/06 11:03:11;;;;;;;3.00;0.30;;;;;;;0.18;71.44;99887.38;105937;1271;22623;-62
2022/01/06 11:05:45;;;;;;;4.50;0.50;;;;;;;0.24;71.77;99886.77;106013;1271;24211;-62
2022/01/06 11:08:20;;;;;;;2.30;0.50;;;;;;;0.28;71.72;99891.38;106055;1271;23053;-62
2022/01/06 11:11:14;;;;;;;2.30;0.40;;;;;;;0.32;71.80;99894.91;106281;1271;23103;-62
2022/01/06 11:13:44;;;;;;;2.40;0.40;;;;;;;0.35;71.51;99896.74;106020;1271;25222;-62
2022/01/06 11:16:17;;;;;;;4.50;0.50;;;;;;;0.37;71.92;99893.49;106533;1271;24266;-62
2022/01/06 11:18:52;;;;;;;3.00;0.30;;;;;;;0.42;71.75;99900.71;106057;1271;22551;-62
2022/01/06 11:21:27;;;;;;;3.00;0.30;;;;;;;0.49;72.17;99901.67;106151;1271;22525;-62
2022/01/06 11:24:11;;;;;;;4.30;0.40;;;;;;;0.55;72.22;99909.89;106122;1271;27627;-61
2022/01/06 11:26:44;;;;;;;7.30;0.40;;;;;;;0.55;71.30;99912.02;105982;1271;24229;-62
2022/01/06 11:29:15;;;;;;;9.00;0.60;;;;;;;0.52;71.08;99913.16;106058;1271;25465;-62
2022/01/06 11:31:46;;;;;;;4.60;0.50;;;;;;;0.51;71.05;99916.01;106256;1271;24450;-62
2022/01/06 11:34:19;;;;;;;5.80;0.60;;;;;;;0.51;71.50;99910.11;106150;1271;22546;-62
2022/01/06 11:36:54;;;;;;;4.40;0.50;;;;;;;0.53;71.44;99916.99;106088;1271;22600;-64
2022/01/06 11:39:29;;;;;;;2.30;0.30;;;;;;;0.56;71.58;99918.66;106402;1271;22556;-62
2022/01/06 11:42:01;;;;;;;3.50;0.40;;;;;;;0.59;70.34;99916.11;106722;1271;22788;-62
2022/01/06 11:44:33;;;;;;;2.80;0.40;;;;;;;0.60;70.56;99916.95;106523;1271;22714;-63
2022/01/06 11:47:06;;;;;;;3.90;0.40;;;;;;;0.63;71.14;99914.46;105987;1272;22586;-62
2022/01/06 11:49:40;;;;;;;6.50;0.50;;;;;;;0.67;70.78;99923.66;106021;1272;22525;-62
2022/01/06 11:52:12;;;;;;;6.70;0.60;;;;;;;0.68;70.29;99928.10;106272;1271;22553;-64
2022/01/06 11:54:57;;;;;;;4.30;0.50;;;;;;;0.70;69.88;99933.27;105912;1271;24223;-66
2022/01/06 11:57:37;;;;;;;7.10;0.50;;;;;;;0.69;69.44;99928.70;105690;1271;24231;-65
2022/01/06 12:00:19;;;;;;;5.50;1.10;;;;;;;0.71;69.54;99930.34;106920;1271;22550;-65
2022/01/06 12:03:02;;;;;;;6.30;0.70;;;;;;;0.74;69.45;99925.64;106165;1271;22622;-65
2022/01/06 12:05:45;;;;;;;3.30;0.50;;;;;;;0.78;69.58;99926.44;105847;1271;22738;-65
2022/01/06 12:08:16;;;;;;;3.40;0.40;;;;;;;0.83;69.32;99927.14;106071;1272;22534;-65
2022/01/06 12:10:51;;;;;;;6.40;0.60;;;;;;;0.87;68.84;99931.46;105953;1271;24218;-65
2022/01/06 12:13:22;;;;;;;2.70;0.80;;;;;;;0.88;68.64;99937.23;107780;1271;25574;-65
2022/01/06 12:15:55;;;;;;;6.50;0.40;;;;;;;0.87;67.90;99944.02;105783;1271;25993;-65